Terminal Aerodrome Forecast
Issued by NWS

Current Version | Previous Version | Text Only | Print | Product List | Glossary On
Versions: 1 2 3 4 5 6 7 8 9 10 11 12 13 14 15 16 17 18 19 20
982
FTUS43 KGRR 302340
TAFLAN
TAF
KLAN 302340Z 0100/0124 08007KT 5SM -RA BR OVC035
     FM010300 07008KT 3SM BR OVC015
     FM010700 05008KT 2SM BR VCSH OVC003
     FM011500 05008KT 5SM BR OVC007
     FM012100 04008KT P6SM OVC015=

USA.gov is the U.S. government's official web portal to all federal, state and local government web resources and services.